createdAt,value
2023-04-08T00:00:39.443Z,21.30
2023-04-08T00:05:43.059Z,24.20
2023-04-08T00:10:46.274Z,20.27
2023-04-08T00:15:54.022Z,19.63
2023-04-08T00:20:57.564Z,24.90
2023-04-08T00:26:00.563Z,24.37
2023-04-08T00:31:05.106Z,26.77
2023-04-08T00:36:08.436Z,21.90
2023-04-08T00:41:11.754Z,23.27
2023-04-08T00:46:16.740Z,23.30
2023-04-08T00:51:20.320Z,26.43
2023-04-08T00:56:24.283Z,27.70
2023-04-08T01:01:35.751Z,28.20
2023-04-08T01:06:43.741Z,31.43
2023-04-08T01:11:51.947Z,37.03
2023-04-08T01:16:58.126Z,33.93
2023-04-08T01:22:10.738Z,38.00
2023-04-08T01:27:16.091Z,36.77
2023-04-08T01:32:19.903Z,42.60
2023-04-08T01:37:24.777Z,41.03
2023-04-08T01:42:33.740Z,45.43
2023-04-08T01:47:38.219Z,42.27
2023-04-08T01:52:42.961Z,45.90
2023-04-08T01:57:52.046Z,44.80
2023-04-08T02:02:56.667Z,46.03
2023-04-08T02:08:00.013Z,43.83
2023-04-08T02:13:05.503Z,41.70
2023-04-08T02:18:14.679Z,39.83
2023-04-08T02:23:21.622Z,38.80
2023-04-08T02:28:28.715Z,37.80
2023-04-08T02:33:32.102Z,38.27
2023-04-08T02:38:35.498Z,39.30
2023-04-08T02:43:40.227Z,41.50
2023-04-08T02:48:43.264Z,36.00
2023-04-08T02:53:46.335Z,40.97
2023-04-08T02:58:52.411Z,48.80
2023-04-08T03:03:55.832Z,42.17
2023-04-08T03:08:59.279Z,40.07
2023-04-08T03:14:03.789Z,47.60
2023-04-08T03:19:06.839Z,84.20
2023-04-08T03:24:09.808Z,176.93
2023-04-08T03:29:14.168Z,357.53
2023-04-08T03:34:17.360Z,391.37
2023-04-08T03:39:21.073Z,228.07
2023-04-08T03:44:25.948Z,348.63
2023-04-08T03:49:29.057Z,281.47
2023-04-08T03:54:32.001Z,302.00
2023-04-08T03:59:36.925Z,103.90
2023-04-08T04:04:39.973Z,334.93
2023-04-08T04:09:43.240Z,399.27
2023-04-08T04:14:47.814Z,468.30
2023-04-08T04:19:52.812Z,461.23
2023-04-08T04:24:55.743Z,277.60
2023-04-08T04:30:01.612Z,555.00
2023-04-08T04:35:04.976Z,431.47
2023-04-08T04:40:09.080Z,444.10
2023-04-08T04:45:13.748Z,302.33
2023-04-08T04:50:17.111Z,525.77
2023-04-08T04:55:20.048Z,381.80
2023-04-08T05:00:24.912Z,383.40
2023-04-08T05:05:28.081Z,337.77
2023-04-08T05:10:31.179Z,357.77
2023-04-08T05:15:36.108Z,251.90
2023-04-08T05:20:39.230Z,362.10
2023-04-08T05:25:42.479Z,164.17
2023-04-08T05:30:52.093Z,303.30
2023-04-08T05:35:55.367Z,218.47
2023-04-08T05:40:58.524Z,197.27
2023-04-08T05:46:07.754Z,313.53
2023-04-08T05:51:15.689Z,90.53
2023-04-08T05:56:18.686Z,293.60
2023-04-08T06:01:23.212Z,235.57
2023-04-08T06:06:26.565Z,395.27
2023-04-08T06:11:29.649Z,305.30
2023-04-08T06:16:34.193Z,77.03
2023-04-08T06:21:37.550Z,296.47
2023-04-08T06:26:40.953Z,311.17
2023-04-08T06:31:45.843Z,323.00
2023-04-08T06:36:50.358Z,356.93
2023-04-08T06:41:54.832Z,411.40
2023-04-08T06:47:34.978Z,360.13
2023-04-08T06:52:38.093Z,297.70
2023-04-08T06:57:41.094Z,183.77
2023-04-08T07:02:46.393Z,187.53
2023-04-08T07:07:49.793Z,113.93
2023-04-08T07:12:53.381Z,240.03
2023-04-08T07:17:58.988Z,130.63
2023-04-08T07:23:02.121Z,126.43
2023-04-08T07:28:05.385Z,85.77
2023-04-08T07:33:09.784Z,83.50
2023-04-08T07:38:13.559Z,86.27
2023-04-08T07:43:16.711Z,88.37
2023-04-08T07:48:21.119Z,90.57
2023-04-08T07:53:26.454Z,47.33
2023-04-08T07:58:29.589Z,56.40
2023-04-08T08:03:34.393Z,90.23
2023-04-08T08:08:37.627Z,36.50
2023-04-08T08:13:40.644Z,65.03
2023-04-08T08:18:45.091Z,64.60
2023-04-08T08:23:49.049Z,24.73
2023-04-08T08:28:52.508Z,22.13
2023-04-08T08:33:56.888Z,14.93
2023-04-08T08:39:00.092Z,18.90
2023-04-08T08:44:04.296Z,15.60
2023-04-08T08:49:09.214Z,13.80
2023-04-08T08:54:12.925Z,17.93
2023-04-08T08:59:17.646Z,15.20
2023-04-08T09:04:23.170Z,13.67
2023-04-08T09:09:27.382Z,15.20
2023-04-08T09:14:30.751Z,14.67
2023-04-08T09:19:35.289Z,15.93
2023-04-08T09:24:39.352Z,15.67
2023-04-08T09:29:42.447Z,15.03
2023-04-08T09:34:46.998Z,14.87
2023-04-08T09:39:50.878Z,15.67
2023-04-08T09:44:56.070Z,15.93
2023-04-08T09:50:09.116Z,15.90
2023-04-08T09:55:14.494Z,16.00
2023-04-08T10:00:19.310Z,16.03
2023-04-08T10:05:26.037Z,16.10
2023-04-08T10:10:29.662Z,16.90
2023-04-08T10:15:34.625Z,17.13
2023-04-08T10:20:46.024Z,18.03
2023-04-08T10:25:52.334Z,17.20
2023-04-08T10:30:56.679Z,17.70
2023-04-08T10:36:11.431Z,18.37
2023-04-08T10:41:21.645Z,16.77
2023-04-08T10:46:25.742Z,19.10
2023-04-08T10:51:35.050Z,17.50
2023-04-08T10:56:44.774Z,18.60
2023-04-08T11:01:50.192Z,19.23
2023-04-08T11:06:54.942Z,19.30
2023-04-08T11:11:58.187Z,18.63
2023-04-08T11:17:01.878Z,16.73
2023-04-08T11:22:07.764Z,15.73
2023-04-08T11:27:11.298Z,16.73
2023-04-08T11:32:14.702Z,15.57
2023-04-08T11:37:27.922Z,16.27
2023-04-08T11:42:34.440Z,14.43
2023-04-08T11:47:38.003Z,15.17
2023-04-08T11:52:57.081Z,14.47
2023-04-08T11:58:04.837Z,13.60
2023-04-08T12:03:08.579Z,15.43
2023-04-08T12:08:13.232Z,12.60
2023-04-08T12:13:16.238Z,13.25
2023-04-08T12:18:19.497Z,12.02
2023-04-08T12:23:23.961Z,11.02
2023-04-08T12:28:27.077Z,10.32
2023-04-08T12:33:30.140Z,10.03
2023-04-08T12:38:34.653Z,9.73
2023-04-08T12:43:39.123Z,9.98
2023-04-08T12:48:42.517Z,10.00
2023-04-08T12:53:46.989Z,8.57
2023-04-08T12:58:50.246Z,8.60
2023-04-08T13:03:53.597Z,8.75
2023-04-08T13:08:58.047Z,9.73
2023-04-08T13:14:01.276Z,8.45
2023-04-08T13:19:04.377Z,8.98
2023-04-08T13:24:08.931Z,8.82
2023-04-08T13:29:12.072Z,8.90
2023-04-08T13:34:15.042Z,8.02
2023-04-08T13:39:19.577Z,8.95
2023-04-08T13:44:22.558Z,9.75
2023-04-08T13:49:26.153Z,8.02
2023-04-08T13:54:31.180Z,8.30
2023-04-08T13:59:34.473Z,8.43
2023-04-08T14:04:37.603Z,10.32
2023-04-08T14:09:42.124Z,6.97
2023-04-08T14:14:45.134Z,8.15
2023-04-08T14:19:48.532Z,7.65
2023-04-08T14:24:53.720Z,7.28
2023-04-08T14:29:56.907Z,7.70
2023-04-08T14:35:00.092Z,11.10
2023-04-08T14:40:05.195Z,8.20
2023-04-08T14:45:11.634Z,7.73
2023-04-08T14:50:15.003Z,9.03
2023-04-08T14:55:22.619Z,8.82
2023-04-08T15:00:26.099Z,8.52
2023-04-08T15:05:29.165Z,8.05
2023-04-08T15:10:33.806Z,7.90
2023-04-08T15:15:37.290Z,10.10
2023-04-08T15:20:40.758Z,7.97
2023-04-08T15:25:45.344Z,10.38
2023-04-08T15:30:48.634Z,7.13
2023-04-08T15:35:52.240Z,8.10
2023-04-08T15:40:56.901Z,7.28
2023-04-08T15:46:00.113Z,7.03
2023-04-08T15:51:08.966Z,6.95
2023-04-08T15:56:16.224Z,7.93
2023-04-08T16:01:20.294Z,8.30
2023-04-08T16:06:23.642Z,10.38
2023-04-08T16:11:34.718Z,8.25
2023-04-08T16:16:43.874Z,9.98
2023-04-08T16:21:47.008Z,10.13
2023-04-08T16:26:51.749Z,7.03
2023-04-08T16:31:55.325Z,8.87
2023-04-08T16:36:58.462Z,7.57
2023-04-08T16:42:02.896Z,7.60
2023-04-08T16:47:06.014Z,10.67
2023-04-08T16:52:09.090Z,6.90
2023-04-08T16:57:13.681Z,9.07
2023-04-08T17:02:16.929Z,8.20
2023-04-08T17:07:20.028Z,8.83
2023-04-08T17:12:25.063Z,9.20
2023-04-08T17:17:28.097Z,9.93
2023-04-08T17:22:31.166Z,8.87
2023-04-08T17:27:35.643Z,10.50
2023-04-08T17:32:39.162Z,11.20
2023-04-08T17:37:42.285Z,9.80
2023-04-08T17:42:47.451Z,10.10
2023-04-08T17:47:51.850Z,9.77
2023-04-08T17:52:55.048Z,9.57
2023-04-08T17:57:59.600Z,9.13
2023-04-08T18:03:02.597Z,10.10
2023-04-08T18:08:05.822Z,8.83
2023-04-08T18:13:11.920Z,7.00
2023-04-08T18:18:19.667Z,6.57
2023-04-08T18:23:23.094Z,6.57
2023-04-08T18:28:28.012Z,6.83
2023-04-08T18:33:31.300Z,8.50
2023-04-08T18:38:36.225Z,8.83
2023-04-08T18:43:41.365Z,10.07
2023-04-08T18:48:44.403Z,7.63
2023-04-08T18:53:47.491Z,12.13
2023-04-08T18:58:54.770Z,8.60
2023-04-08T19:03:58.006Z,8.63
2023-04-08T19:09:01.168Z,8.13
2023-04-08T19:14:07.656Z,8.40
2023-04-08T19:19:11.051Z,7.77
2023-04-08T19:24:14.087Z,8.97
2023-04-08T19:29:23.037Z,8.87
2023-04-08T19:34:26.350Z,8.90
2023-04-08T19:39:29.446Z,9.27
2023-04-08T19:44:34.548Z,11.00
2023-04-08T19:49:38.963Z,13.70
2023-04-08T19:54:43.569Z,11.17
2023-04-08T19:59:49.844Z,11.40
2023-04-08T20:04:52.877Z,10.53
2023-04-08T20:09:55.994Z,10.37
2023-04-08T20:15:00.962Z,12.83
2023-04-08T20:20:05.468Z,14.07
2023-04-08T20:25:08.687Z,12.97
2023-04-08T20:30:14.257Z,14.50
2023-04-08T20:35:17.791Z,15.67
2023-04-08T20:40:21.016Z,15.73
2023-04-08T20:45:26.301Z,16.37
2023-04-08T20:50:30.200Z,19.43
2023-04-08T20:55:33.563Z,17.57
2023-04-08T21:00:38.148Z,18.40
2023-04-08T21:05:42.095Z,18.33
2023-04-08T21:10:45.445Z,18.60
2023-04-08T21:15:50.162Z,17.97
2023-04-08T21:20:53.395Z,18.83
2023-04-08T21:25:56.658Z,19.20
2023-04-08T21:31:10.762Z,20.00
2023-04-08T21:36:14.090Z,21.30
2023-04-08T21:41:17.292Z,20.20
2023-04-08T21:46:21.830Z,20.53
2023-04-08T21:51:24.853Z,20.03
2023-04-08T21:56:28.055Z,22.10
2023-04-08T22:01:32.849Z,20.13
2023-04-08T22:06:36.325Z,22.33
2023-04-08T22:11:40.827Z,21.60
2023-04-08T22:16:45.533Z,20.57
2023-04-08T22:21:50.356Z,22.10
2023-04-08T22:26:54.217Z,20.40
2023-04-08T22:31:58.783Z,21.97
2023-04-08T22:37:01.808Z,20.33
2023-04-08T22:42:04.895Z,21.07
2023-04-08T22:47:09.689Z,22.63
2023-04-08T22:52:12.907Z,21.27
2023-04-08T22:57:15.995Z,20.00
2023-04-08T23:02:20.651Z,22.80
2023-04-08T23:07:24.313Z,21.60
2023-04-08T23:12:27.164Z,21.33
2023-04-08T23:17:31.530Z,21.67
2023-04-08T23:22:34.514Z,20.77
2023-04-08T23:27:37.639Z,22.17
2023-04-08T23:32:42.053Z,23.37
2023-04-08T23:37:45.039Z,23.23
2023-04-08T23:42:48.503Z,21.53
2023-04-08T23:47:52.972Z,21.70
2023-04-08T23:52:56.130Z,24.00
2023-04-08T23:58:00.078Z,22.97
